Terminal Aerodrome Forecast
Issued by NWS Houston/Galveston TX

Home | Current Version | Previous Version | Text Only | Print | Product List | Glossary On
Versions: 1 2 3 4 5 6 7 8 9 10 11 12 13 14 15 16 17 18 19 20 21 22 23 24 25 26
000
FTUS44 KHGX 312209 AAB
TAFHOU
TAF AMD
KHOU 312209Z 3122/0118 18008KT P6SM FEW040 SCT160 BKN250
     FM010100 16005KT P6SM FEW035 BKN250
     FM011000 VRB02KT P6SM BKN025
     FM011500 15006KT P6SM BKN025=

USA.gov is the U.S. government's official web portal to all federal, state and local government web resources and services.